sensor_id;sensor_type;location;lat;lon;timestamp;P1;durP1;ratioP1;P2;durP2;ratioP2
9722;SDS011;4900;49.306;8.500;2022-11-30T00:02:55;31.50;;;17.77;;
9722;SDS011;4900;49.306;8.500;2022-11-30T00:06:05;32.57;;;18.30;;
9722;SDS011;4900;49.306;8.500;2022-11-30T00:09:09;35.87;;;18.93;;
9722;SDS011;4900;49.306;8.500;2022-11-30T00:12:12;34.37;;;19.70;;
9722;SDS011;4900;49.306;8.500;2022-11-30T00:15:15;32.27;;;19.00;;
9722;SDS011;4900;49.306;8.500;2022-11-30T00:18:19;26.80;;;17.97;;
9722;SDS011;4900;49.306;8.500;2022-11-30T00:21:22;34.97;;;19.97;;
9722;SDS011;4900;49.306;8.500;2022-11-30T00:24:26;36.27;;;20.00;;
9722;SDS011;4900;49.306;8.500;2022-11-30T00:27:29;31.47;;;18.27;;
9722;SDS011;4900;49.306;8.500;2022-11-30T00:30:36;36.33;;;20.43;;
9722;SDS011;4900;49.306;8.500;2022-11-30T00:33:39;32.63;;;20.40;;
9722;SDS011;4900;49.306;8.500;2022-11-30T00:36:43;34.20;;;20.67;;
9722;SDS011;4900;49.306;8.500;2022-11-30T00:39:46;34.43;;;19.13;;
9722;SDS011;4900;49.306;8.500;2022-11-30T00:42:49;41.30;;;19.33;;
9722;SDS011;4900;49.306;8.500;2022-11-30T00:45:52;38.83;;;19.40;;
9722;SDS011;4900;49.306;8.500;2022-11-30T00:48:56;42.33;;;18.70;;
9722;SDS011;4900;49.306;8.500;2022-11-30T00:51:59;40.00;;;18.37;;
9722;SDS011;4900;49.306;8.500;2022-11-30T00:55:03;43.20;;;18.13;;
9722;SDS011;4900;49.306;8.500;2022-11-30T00:58:07;45.80;;;19.67;;
9722;SDS011;4900;49.306;8.500;2022-11-30T01:01:10;43.40;;;18.17;;
9722;SDS011;4900;49.306;8.500;2022-11-30T01:04:13;39.80;;;19.03;;
9722;SDS011;4900;49.306;8.500;2022-11-30T01:07:16;42.70;;;17.60;;
9722;SDS011;4900;49.306;8.500;2022-11-30T01:10:20;44.27;;;18.87;;
9722;SDS011;4900;49.306;8.500;2022-11-30T01:13:24;46.40;;;20.37;;
9722;SDS011;4900;49.306;8.500;2022-11-30T01:16:29;47.77;;;20.57;;
9722;SDS011;4900;49.306;8.500;2022-11-30T01:19:34;37.13;;;18.23;;
9722;SDS011;4900;49.306;8.500;2022-11-30T01:22:37;40.37;;;18.50;;
9722;SDS011;4900;49.306;8.500;2022-11-30T01:25:41;50.67;;;21.27;;
9722;SDS011;4900;49.306;8.500;2022-11-30T01:28:44;45.03;;;18.70;;
9722;SDS011;4900;49.306;8.500;2022-11-30T01:31:52;49.30;;;19.60;;
9722;SDS011;4900;49.306;8.500;2022-11-30T01:34:55;47.00;;;19.30;;
9722;SDS011;4900;49.306;8.500;2022-11-30T01:37:58;51.33;;;20.73;;
9722;SDS011;4900;49.306;8.500;2022-11-30T01:41:02;46.37;;;19.83;;
9722;SDS011;4900;49.306;8.500;2022-11-30T01:47:09;46.60;;;20.47;;
9722;SDS011;4900;49.306;8.500;2022-11-30T01:50:15;49.70;;;21.30;;
9722;SDS011;4900;49.306;8.500;2022-11-30T01:53:25;49.17;;;20.43;;
9722;SDS011;4900;49.306;8.500;2022-11-30T01:56:29;49.10;;;21.43;;
9722;SDS011;4900;49.306;8.500;2022-11-30T01:59:32;44.43;;;19.50;;
9722;SDS011;4900;49.306;8.500;2022-11-30T02:02:44;54.20;;;20.93;;
9722;SDS011;4900;49.306;8.500;2022-11-30T02:05:55;51.73;;;21.20;;
9722;SDS011;4900;49.306;8.500;2022-11-30T02:08:59;43.63;;;20.30;;
9722;SDS011;4900;49.306;8.500;2022-11-30T02:12:03;54.03;;;21.27;;
9722;SDS011;4900;49.306;8.500;2022-11-30T02:15:14;49.83;;;19.90;;
9722;SDS011;4900;49.306;8.500;2022-11-30T02:18:30;51.17;;;20.67;;
9722;SDS011;4900;49.306;8.500;2022-11-30T02:28:45;52.17;;;19.87;;
9722;SDS011;4900;49.306;8.500;2022-11-30T02:31:58;50.00;;;20.03;;
9722;SDS011;4900;49.306;8.500;2022-11-30T02:35:10;41.13;;;18.43;;
9722;SDS011;4900;49.306;8.500;2022-11-30T02:38:19;47.27;;;19.70;;
9722;SDS011;4900;49.306;8.500;2022-11-30T02:41:24;42.50;;;19.37;;
9722;SDS011;4900;49.306;8.500;2022-11-30T02:44:27;48.03;;;19.07;;
9722;SDS011;4900;49.306;8.500;2022-11-30T02:50:59;40.37;;;18.43;;
9722;SDS011;4900;49.306;8.500;2022-11-30T02:54:05;51.73;;;20.17;;
9722;SDS011;4900;49.306;8.500;2022-11-30T02:57:10;47.33;;;21.23;;
9722;SDS011;4900;49.306;8.500;2022-11-30T03:00:13;42.63;;;19.47;;
9722;SDS011;4900;49.306;8.500;2022-11-30T03:03:17;45.30;;;19.07;;
9722;SDS011;4900;49.306;8.500;2022-11-30T03:06:20;47.67;;;19.73;;
9722;SDS011;4900;49.306;8.500;2022-11-30T03:09:24;45.63;;;19.47;;
9722;SDS011;4900;49.306;8.500;2022-11-30T03:12:28;41.93;;;19.00;;
9722;SDS011;4900;49.306;8.500;2022-11-30T03:15:31;44.67;;;18.97;;
9722;SDS011;4900;49.306;8.500;2022-11-30T03:18:35;42.27;;;20.27;;
9722;SDS011;4900;49.306;8.500;2022-11-30T03:21:38;44.77;;;19.13;;
9722;SDS011;4900;49.306;8.500;2022-11-30T03:24:41;42.33;;;18.27;;
9722;SDS011;4900;49.306;8.500;2022-11-30T03:27:44;46.83;;;19.50;;
9722;SDS011;4900;49.306;8.500;2022-11-30T03:30:48;41.27;;;19.67;;
9722;SDS011;4900;49.306;8.500;2022-11-30T03:33:52;41.27;;;20.13;;
9722;SDS011;4900;49.306;8.500;2022-11-30T03:36:55;43.23;;;19.03;;
9722;SDS011;4900;49.306;8.500;2022-11-30T03:39:58;39.20;;;18.60;;
9722;SDS011;4900;49.306;8.500;2022-11-30T03:43:02;44.97;;;19.63;;
9722;SDS011;4900;49.306;8.500;2022-11-30T03:46:05;38.63;;;18.20;;
9722;SDS011;4900;49.306;8.500;2022-11-30T03:49:09;35.20;;;17.83;;
9722;SDS011;4900;49.306;8.500;2022-11-30T03:52:11;38.50;;;18.00;;
9722;SDS011;4900;49.306;8.500;2022-11-30T03:55:14;37.47;;;18.27;;
9722;SDS011;4900;49.306;8.500;2022-11-30T03:58:18;33.50;;;17.30;;
9722;SDS011;4900;49.306;8.500;2022-11-30T04:01:21;39.83;;;17.80;;
9722;SDS011;4900;49.306;8.500;2022-11-30T04:04:25;39.50;;;18.90;;
9722;SDS011;4900;49.306;8.500;2022-11-30T04:07:28;40.57;;;18.43;;
9722;SDS011;4900;49.306;8.500;2022-11-30T04:10:32;38.97;;;18.10;;
9722;SDS011;4900;49.306;8.500;2022-11-30T04:13:36;43.53;;;18.67;;
9722;SDS011;4900;49.306;8.500;2022-11-30T04:16:39;39.53;;;19.07;;
9722;SDS011;4900;49.306;8.500;2022-11-30T04:19:42;39.23;;;17.63;;
9722;SDS011;4900;49.306;8.500;2022-11-30T04:22:45;40.00;;;17.83;;
9722;SDS011;4900;49.306;8.500;2022-11-30T04:25:48;37.90;;;17.53;;
9722;SDS011;4900;49.306;8.500;2022-11-30T04:28:52;42.63;;;19.27;;
9722;SDS011;4900;49.306;8.500;2022-11-30T04:31:55;36.20;;;16.93;;
9722;SDS011;4900;49.306;8.500;2022-11-30T04:34:59;38.97;;;17.33;;
9722;SDS011;4900;49.306;8.500;2022-11-30T04:38:02;38.77;;;18.37;;
9722;SDS011;4900;49.306;8.500;2022-11-30T04:41:06;40.20;;;17.80;;
9722;SDS011;4900;49.306;8.500;2022-11-30T04:44:10;32.27;;;16.43;;
9722;SDS011;4900;49.306;8.500;2022-11-30T04:47:13;45.33;;;18.43;;
9722;SDS011;4900;49.306;8.500;2022-11-30T04:50:17;40.53;;;19.13;;
9722;SDS011;4900;49.306;8.500;2022-11-30T04:53:20;38.97;;;18.77;;
9722;SDS011;4900;49.306;8.500;2022-11-30T04:56:23;36.13;;;17.50;;
9722;SDS011;4900;49.306;8.500;2022-11-30T04:59:27;39.93;;;18.37;;
9722;SDS011;4900;49.306;8.500;2022-11-30T05:02:30;34.27;;;17.73;;
9722;SDS011;4900;49.306;8.500;2022-11-30T05:05:33;46.70;;;18.87;;
9722;SDS011;4900;49.306;8.500;2022-11-30T05:08:37;41.77;;;18.13;;
9722;SDS011;4900;49.306;8.500;2022-11-30T05:11:40;40.13;;;18.37;;
9722;SDS011;4900;49.306;8.500;2022-11-30T05:14:43;38.60;;;16.83;;
9722;SDS011;4900;49.306;8.500;2022-11-30T05:17:47;43.80;;;19.87;;
9722;SDS011;4900;49.306;8.500;2022-11-30T05:20:51;42.83;;;20.47;;
9722;SDS011;4900;49.306;8.500;2022-11-30T05:23:54;45.63;;;19.67;;
9722;SDS011;4900;49.306;8.500;2022-11-30T05:26:58;42.40;;;19.33;;
9722;SDS011;4900;49.306;8.500;2022-11-30T05:30:01;49.03;;;20.37;;
9722;SDS011;4900;49.306;8.500;2022-11-30T05:33:05;46.47;;;19.73;;
9722;SDS011;4900;49.306;8.500;2022-11-30T05:36:08;45.67;;;19.67;;
9722;SDS011;4900;49.306;8.500;2022-11-30T05:39:11;44.40;;;19.60;;
9722;SDS011;4900;49.306;8.500;2022-11-30T05:42:14;41.50;;;21.13;;
9722;SDS011;4900;49.306;8.500;2022-11-30T05:45:18;43.83;;;20.00;;
9722;SDS011;4900;49.306;8.500;2022-11-30T05:48:22;45.07;;;20.10;;
9722;SDS011;4900;49.306;8.500;2022-11-30T05:51:25;41.90;;;20.63;;
9722;SDS011;4900;49.306;8.500;2022-11-30T05:54:28;44.37;;;20.00;;
9722;SDS011;4900;49.306;8.500;2022-11-30T05:57:35;42.70;;;19.37;;
9722;SDS011;4900;49.306;8.500;2022-11-30T06:00:39;41.70;;;19.10;;
9722;SDS011;4900;49.306;8.500;2022-11-30T06:03:42;42.57;;;21.00;;
9722;SDS011;4900;49.306;8.500;2022-11-30T06:06:46;36.73;;;18.70;;
9722;SDS011;4900;49.306;8.500;2022-11-30T06:09:50;42.27;;;20.60;;
9722;SDS011;4900;49.306;8.500;2022-11-30T06:12:53;45.87;;;21.53;;
9722;SDS011;4900;49.306;8.500;2022-11-30T06:15:58;49.67;;;21.23;;
9722;SDS011;4900;49.306;8.500;2022-11-30T06:19:02;44.57;;;19.90;;
9722;SDS011;4900;49.306;8.500;2022-11-30T06:22:05;51.27;;;23.43;;
9722;SDS011;4900;49.306;8.500;2022-11-30T06:25:09;52.30;;;22.47;;
9722;SDS011;4900;49.306;8.500;2022-11-30T06:28:12;49.80;;;21.97;;
9722;SDS011;4900;49.306;8.500;2022-11-30T06:31:15;45.17;;;21.37;;
9722;SDS011;4900;49.306;8.500;2022-11-30T06:34:19;48.00;;;21.57;;
9722;SDS011;4900;49.306;8.500;2022-11-30T06:37:22;41.83;;;20.00;;
9722;SDS011;4900;49.306;8.500;2022-11-30T06:40:26;45.73;;;22.73;;
9722;SDS011;4900;49.306;8.500;2022-11-30T06:43:36;47.70;;;21.73;;
9722;SDS011;4900;49.306;8.500;2022-11-30T06:46:41;44.23;;;21.13;;
9722;SDS011;4900;49.306;8.500;2022-11-30T06:49:44;45.07;;;21.40;;
9722;SDS011;4900;49.306;8.500;2022-11-30T06:52:47;46.93;;;20.53;;
9722;SDS011;4900;49.306;8.500;2022-11-30T06:55:50;47.37;;;21.07;;
9722;SDS011;4900;49.306;8.500;2022-11-30T06:58:53;42.30;;;20.87;;
9722;SDS011;4900;49.306;8.500;2022-11-30T07:01:56;44.87;;;21.10;;
9722;SDS011;4900;49.306;8.500;2022-11-30T07:05:00;43.00;;;21.77;;
9722;SDS011;4900;49.306;8.500;2022-11-30T07:08:04;48.73;;;21.17;;
9722;SDS011;4900;49.306;8.500;2022-11-30T07:11:07;44.87;;;21.23;;
9722;SDS011;4900;49.306;8.500;2022-11-30T07:14:12;45.63;;;21.90;;
9722;SDS011;4900;49.306;8.500;2022-11-30T07:17:15;40.80;;;18.87;;
9722;SDS011;4900;49.306;8.500;2022-11-30T07:20:18;44.03;;;21.20;;
9722;SDS011;4900;49.306;8.500;2022-11-30T07:23:21;39.60;;;19.93;;
9722;SDS011;4900;49.306;8.500;2022-11-30T07:26:43;43.60;;;22.00;;
9722;SDS011;4900;49.306;8.500;2022-11-30T07:29:46;46.23;;;22.80;;
9722;SDS011;4900;49.306;8.500;2022-11-30T07:32:50;43.70;;;21.03;;
9722;SDS011;4900;49.306;8.500;2022-11-30T07:35:53;53.97;;;22.37;;
9722;SDS011;4900;49.306;8.500;2022-11-30T07:38:57;47.13;;;22.10;;
9722;SDS011;4900;49.306;8.500;2022-11-30T07:42:00;55.57;;;22.50;;
9722;SDS011;4900;49.306;8.500;2022-11-30T07:45:04;44.17;;;20.13;;
9722;SDS011;4900;49.306;8.500;2022-11-30T07:48:07;49.30;;;21.53;;
9722;SDS011;4900;49.306;8.500;2022-11-30T07:51:12;45.47;;;21.53;;
9722;SDS011;4900;49.306;8.500;2022-11-30T07:54:23;57.97;;;23.07;;
9722;SDS011;4900;49.306;8.500;2022-11-30T07:57:27;52.63;;;23.67;;
9722;SDS011;4900;49.306;8.500;2022-11-30T08:00:30;48.77;;;21.67;;
9722;SDS011;4900;49.306;8.500;2022-11-30T08:03:34;56.47;;;22.30;;
9722;SDS011;4900;49.306;8.500;2022-11-30T08:06:39;61.03;;;24.43;;
9722;SDS011;4900;49.306;8.500;2022-11-30T08:09:42;58.47;;;24.33;;
9722;SDS011;4900;49.306;8.500;2022-11-30T08:12:47;58.73;;;22.60;;
9722;SDS011;4900;49.306;8.500;2022-11-30T08:15:50;52.13;;;22.23;;
9722;SDS011;4900;49.306;8.500;2022-11-30T08:18:54;50.73;;;22.47;;
9722;SDS011;4900;49.306;8.500;2022-11-30T08:21:58;55.07;;;22.40;;
9722;SDS011;4900;49.306;8.500;2022-11-30T08:25:01;56.57;;;23.40;;
9722;SDS011;4900;49.306;8.500;2022-11-30T08:28:04;62.07;;;25.80;;
9722;SDS011;4900;49.306;8.500;2022-11-30T08:31:08;62.77;;;24.50;;
9722;SDS011;4900;49.306;8.500;2022-11-30T08:34:14;51.47;;;23.00;;
9722;SDS011;4900;49.306;8.500;2022-11-30T08:37:17;49.07;;;22.60;;
9722;SDS011;4900;49.306;8.500;2022-11-30T08:40:20;50.13;;;22.20;;
9722;SDS011;4900;49.306;8.500;2022-11-30T08:43:22;56.67;;;24.13;;
9722;SDS011;4900;49.306;8.500;2022-11-30T08:46:26;58.73;;;24.60;;
9722;SDS011;4900;49.306;8.500;2022-11-30T08:49:29;49.43;;;22.17;;
9722;SDS011;4900;49.306;8.500;2022-11-30T08:52:32;47.13;;;22.27;;
9722;SDS011;4900;49.306;8.500;2022-11-30T08:55:36;46.37;;;22.20;;
9722;SDS011;4900;49.306;8.500;2022-11-30T08:58:39;52.90;;;23.73;;
9722;SDS011;4900;49.306;8.500;2022-11-30T09:01:42;53.00;;;23.17;;
9722;SDS011;4900;49.306;8.500;2022-11-30T09:04:46;42.90;;;20.93;;
9722;SDS011;4900;49.306;8.500;2022-11-30T09:07:50;42.67;;;21.37;;
9722;SDS011;4900;49.306;8.500;2022-11-30T09:10:53;44.30;;;21.17;;
9722;SDS011;4900;49.306;8.500;2022-11-30T09:13:57;45.17;;;21.73;;
9722;SDS011;4900;49.306;8.500;2022-11-30T09:17:01;49.17;;;22.03;;
9722;SDS011;4900;49.306;8.500;2022-11-30T09:20:05;42.77;;;20.10;;
9722;SDS011;4900;49.306;8.500;2022-11-30T09:23:09;44.27;;;21.80;;
9722;SDS011;4900;49.306;8.500;2022-11-30T09:26:13;48.00;;;22.77;;
9722;SDS011;4900;49.306;8.500;2022-11-30T09:29:19;42.60;;;21.30;;
9722;SDS011;4900;49.306;8.500;2022-11-30T09:32:22;40.67;;;20.73;;
9722;SDS011;4900;49.306;8.500;2022-11-30T09:35:26;43.27;;;22.00;;
9722;SDS011;4900;49.306;8.500;2022-11-30T09:38:29;41.60;;;21.13;;
9722;SDS011;4900;49.306;8.500;2022-11-30T09:52:02;41.40;;;20.60;;
9722;SDS011;4900;49.306;8.500;2022-11-30T09:55:08;40.37;;;21.20;;
9722;SDS011;4900;49.306;8.500;2022-11-30T10:01:48;34.40;;;19.30;;
9722;SDS011;4900;49.306;8.500;2022-11-30T10:04:52;32.87;;;18.90;;
9722;SDS011;4900;49.306;8.500;2022-11-30T10:11:40;33.60;;;19.80;;
9722;SDS011;4900;49.306;8.500;2022-11-30T10:15:08;33.27;;;18.07;;
9722;SDS011;4900;49.306;8.500;2022-11-30T10:25:08;27.57;;;17.40;;
9722;SDS011;4900;49.306;8.500;2022-11-30T10:28:33;26.37;;;16.77;;
9722;SDS011;4900;49.306;8.500;2022-11-30T10:31:57;27.23;;;15.53;;
9722;SDS011;4900;49.306;8.500;2022-11-30T10:35:10;21.73;;;15.53;;
9722;SDS011;4900;49.306;8.500;2022-11-30T10:42:07;19.97;;;14.70;;
9722;SDS011;4900;49.306;8.500;2022-11-30T10:45:12;20.80;;;14.80;;
9722;SDS011;4900;49.306;8.500;2022-11-30T10:48:27;18.63;;;13.60;;
9722;SDS011;4900;49.306;8.500;2022-11-30T10:51:44;18.33;;;13.40;;
9722;SDS011;4900;49.306;8.500;2022-11-30T10:54:49;17.53;;;12.87;;
9722;SDS011;4900;49.306;8.500;2022-11-30T10:58:01;17.03;;;12.87;;
9722;SDS011;4900;49.306;8.500;2022-11-30T11:05:00;14.43;;;11.50;;
9722;SDS011;4900;49.306;8.500;2022-11-30T11:08:17;15.27;;;11.57;;
9722;SDS011;4900;49.306;8.500;2022-11-30T11:11:28;12.70;;;10.33;;
9722;SDS011;4900;49.306;8.500;2022-11-30T11:14:40;13.03;;;10.07;;
9722;SDS011;4900;49.306;8.500;2022-11-30T11:17:43;13.43;;;10.17;;
9722;SDS011;4900;49.306;8.500;2022-11-30T11:20:46;11.83;;;10.03;;
9722;SDS011;4900;49.306;8.500;2022-11-30T11:23:54;12.07;;;10.03;;
9722;SDS011;4900;49.306;8.500;2022-11-30T11:26:59;11.50;;;9.50;;
9722;SDS011;4900;49.306;8.500;2022-11-30T11:30:05;11.50;;;9.33;;
9722;SDS011;4900;49.306;8.500;2022-11-30T11:33:39;10.70;;;9.40;;
9722;SDS011;4900;49.306;8.500;2022-11-30T11:37:15;10.90;;;9.70;;
9722;SDS011;4900;49.306;8.500;2022-11-30T11:40:24;10.93;;;9.27;;
9722;SDS011;4900;49.306;8.500;2022-11-30T11:43:29;11.23;;;9.27;;
9722;SDS011;4900;49.306;8.500;2022-11-30T11:46:34;10.13;;;8.93;;
9722;SDS011;4900;49.306;8.500;2022-11-30T11:49:40;10.07;;;8.93;;
9722;SDS011;4900;49.306;8.500;2022-11-30T11:52:43;10.68;;;8.85;;
9722;SDS011;4900;49.306;8.500;2022-11-30T11:55:46;12.77;;;9.80;;
9722;SDS011;4900;49.306;8.500;2022-11-30T11:59:05;10.20;;;8.87;;
9722;SDS011;4900;49.306;8.500;2022-11-30T12:05:50;9.68;;;7.95;;
9722;SDS011;4900;49.306;8.500;2022-11-30T12:09:03;9.52;;;8.52;;
9722;SDS011;4900;49.306;8.500;2022-11-30T12:12:12;10.13;;;8.80;;
9722;SDS011;4900;49.306;8.500;2022-11-30T12:15:15;10.25;;;9.05;;
9722;SDS011;4900;49.306;8.500;2022-11-30T12:21:54;9.20;;;8.23;;
9722;SDS011;4900;49.306;8.500;2022-11-30T12:35:15;11.60;;;8.70;;
9722;SDS011;4900;49.306;8.500;2022-11-30T12:45:39;9.68;;;8.38;;
9722;SDS011;4900;49.306;8.500;2022-11-30T12:56:01;10.20;;;8.50;;
9722;SDS011;4900;49.306;8.500;2022-11-30T12:59:14;11.27;;;9.40;;
9722;SDS011;4900;49.306;8.500;2022-11-30T13:06:06;12.33;;;9.67;;
9722;SDS011;4900;49.306;8.500;2022-11-30T13:09:18;11.90;;;9.50;;
9722;SDS011;4900;49.306;8.500;2022-11-30T13:12:24;11.87;;;8.80;;
9722;SDS011;4900;49.306;8.500;2022-11-30T13:15:37;12.20;;;9.70;;
9722;SDS011;4900;49.306;8.500;2022-11-30T13:18:41;13.23;;;10.00;;
9722;SDS011;4900;49.306;8.500;2022-11-30T13:21:49;9.73;;;8.43;;
9722;SDS011;4900;49.306;8.500;2022-11-30T13:25:02;10.80;;;9.23;;
9722;SDS011;4900;49.306;8.500;2022-11-30T13:32:04;13.30;;;10.63;;
9722;SDS011;4900;49.306;8.500;2022-11-30T13:38:31;13.70;;;10.70;;
9722;SDS011;4900;49.306;8.500;2022-11-30T13:41:35;13.17;;;10.33;;
9722;SDS011;4900;49.306;8.500;2022-11-30T13:44:39;13.77;;;10.87;;
9722;SDS011;4900;49.306;8.500;2022-11-30T13:47:50;13.97;;;11.40;;
9722;SDS011;4900;49.306;8.500;2022-11-30T13:50:55;12.33;;;9.80;;
9722;SDS011;4900;49.306;8.500;2022-11-30T14:00:47;14.83;;;11.40;;
9722;SDS011;4900;49.306;8.500;2022-11-30T14:07:33;13.33;;;10.13;;
9722;SDS011;4900;49.306;8.500;2022-11-30T14:10:44;15.83;;;10.97;;
9722;SDS011;4900;49.306;8.500;2022-11-30T14:13:49;13.57;;;9.83;;
9722;SDS011;4900;49.306;8.500;2022-11-30T14:16:52;15.27;;;11.57;;
9722;SDS011;4900;49.306;8.500;2022-11-30T14:20:04;14.60;;;10.70;;
9722;SDS011;4900;49.306;8.500;2022-11-30T14:23:17;13.43;;;11.07;;
9722;SDS011;4900;49.306;8.500;2022-11-30T14:26:34;13.67;;;11.00;;
9722;SDS011;4900;49.306;8.500;2022-11-30T14:29:40;14.93;;;11.53;;
9722;SDS011;4900;49.306;8.500;2022-11-30T14:32:48;15.70;;;12.13;;
9722;SDS011;4900;49.306;8.500;2022-11-30T14:35:56;17.23;;;11.57;;
9722;SDS011;4900;49.306;8.500;2022-11-30T14:39:02;15.60;;;10.90;;
9722;SDS011;4900;49.306;8.500;2022-11-30T14:42:05;19.07;;;12.30;;
9722;SDS011;4900;49.306;8.500;2022-11-30T14:45:21;16.77;;;11.53;;
9722;SDS011;4900;49.306;8.500;2022-11-30T14:48:29;16.53;;;12.10;;
9722;SDS011;4900;49.306;8.500;2022-11-30T14:51:32;15.13;;;11.10;;
9722;SDS011;4900;49.306;8.500;2022-11-30T14:54:38;17.00;;;11.93;;
9722;SDS011;4900;49.306;8.500;2022-11-30T15:01:14;14.70;;;11.23;;
9722;SDS011;4900;49.306;8.500;2022-11-30T15:04:22;14.70;;;10.27;;
9722;SDS011;4900;49.306;8.500;2022-11-30T15:07:29;17.30;;;12.90;;
9722;SDS011;4900;49.306;8.500;2022-11-30T15:10:32;17.23;;;13.23;;
9722;SDS011;4900;49.306;8.500;2022-11-30T15:13:45;17.80;;;12.83;;
9722;SDS011;4900;49.306;8.500;2022-11-30T15:16:51;15.40;;;12.23;;
9722;SDS011;4900;49.306;8.500;2022-11-30T15:19:56;14.97;;;10.87;;
9722;SDS011;4900;49.306;8.500;2022-11-30T15:22:59;15.43;;;11.33;;
9722;SDS011;4900;49.306;8.500;2022-11-30T15:26:46;16.23;;;12.37;;
9722;SDS011;4900;49.306;8.500;2022-11-30T15:29:44;14.63;;;11.43;;
9722;SDS011;4900;49.306;8.500;2022-11-30T15:32:50;16.13;;;12.13;;
9722;SDS011;4900;49.306;8.500;2022-11-30T15:35:54;18.87;;;12.00;;
9722;SDS011;4900;49.306;8.500;2022-11-30T15:38:57;17.13;;;12.43;;
9722;SDS011;4900;49.306;8.500;2022-11-30T15:42:05;16.67;;;12.30;;
9722;SDS011;4900;49.306;8.500;2022-11-30T15:45:14;15.37;;;11.50;;
9722;SDS011;4900;49.306;8.500;2022-11-30T15:51:58;15.03;;;11.23;;
9722;SDS011;4900;49.306;8.500;2022-11-30T15:55:38;17.90;;;12.43;;
9722;SDS011;4900;49.306;8.500;2022-11-30T15:59:04;18.00;;;12.37;;
9722;SDS011;4900;49.306;8.500;2022-11-30T16:02:24;18.97;;;12.77;;
9722;SDS011;4900;49.306;8.500;2022-11-30T16:05:33;17.60;;;12.00;;
9722;SDS011;4900;49.306;8.500;2022-11-30T16:08:44;15.03;;;11.20;;
9722;SDS011;4900;49.306;8.500;2022-11-30T16:11:52;32.50;;;21.00;;
9722;SDS011;4900;49.306;8.500;2022-11-30T16:14:56;25.87;;;18.23;;
9722;SDS011;4900;49.306;8.500;2022-11-30T16:18:01;19.70;;;13.47;;
9722;SDS011;4900;49.306;8.500;2022-11-30T16:24:03;21.47;;;14.47;;
9722;SDS011;4900;49.306;8.500;2022-11-30T16:27:14;23.77;;;15.20;;
9722;SDS011;4900;49.306;8.500;2022-11-30T16:30:20;24.80;;;16.40;;
9722;SDS011;4900;49.306;8.500;2022-11-30T16:33:26;24.23;;;16.60;;
9722;SDS011;4900;49.306;8.500;2022-11-30T16:36:30;25.17;;;17.00;;
9722;SDS011;4900;49.306;8.500;2022-11-30T16:39:39;27.17;;;16.77;;
9722;SDS011;4900;49.306;8.500;2022-11-30T16:42:48;32.23;;;20.30;;
9722;SDS011;4900;49.306;8.500;2022-11-30T16:45:56;24.17;;;15.60;;
9722;SDS011;4900;49.306;8.500;2022-11-30T16:49:03;24.67;;;16.33;;
9722;SDS011;4900;49.306;8.500;2022-11-30T16:52:08;25.17;;;15.67;;
9722;SDS011;4900;49.306;8.500;2022-11-30T16:55:18;24.37;;;14.93;;
9722;SDS011;4900;49.306;8.500;2022-11-30T16:58:23;23.70;;;16.87;;
9722;SDS011;4900;49.306;8.500;2022-11-30T17:02:02;24.53;;;16.40;;
9722;SDS011;4900;49.306;8.500;2022-11-30T17:05:02;22.70;;;15.83;;
9722;SDS011;4900;49.306;8.500;2022-11-30T17:08:07;21.07;;;14.73;;
9722;SDS011;4900;49.306;8.500;2022-11-30T17:11:26;21.13;;;14.87;;
9722;SDS011;4900;49.306;8.500;2022-11-30T17:14:36;23.77;;;16.40;;
9722;SDS011;4900;49.306;8.500;2022-11-30T17:17:40;20.60;;;14.37;;
9722;SDS011;4900;49.306;8.500;2022-11-30T17:20:43;22.00;;;15.43;;
9722;SDS011;4900;49.306;8.500;2022-11-30T17:23:47;20.27;;;14.93;;
9722;SDS011;4900;49.306;8.500;2022-11-30T17:26:50;22.13;;;15.07;;
9722;SDS011;4900;49.306;8.500;2022-11-30T17:29:54;21.43;;;14.50;;
9722;SDS011;4900;49.306;8.500;2022-11-30T17:32:57;20.73;;;14.23;;
9722;SDS011;4900;49.306;8.500;2022-11-30T17:36:01;19.70;;;13.67;;
9722;SDS011;4900;49.306;8.500;2022-11-30T17:39:07;19.43;;;13.17;;
9722;SDS011;4900;49.306;8.500;2022-11-30T17:42:11;18.80;;;13.70;;
9722;SDS011;4900;49.306;8.500;2022-11-30T17:45:14;17.57;;;12.90;;
9722;SDS011;4900;49.306;8.500;2022-11-30T17:48:19;19.13;;;13.50;;
9722;SDS011;4900;49.306;8.500;2022-11-30T17:51:23;18.50;;;13.20;;
9722;SDS011;4900;49.306;8.500;2022-11-30T17:54:28;18.53;;;12.57;;
9722;SDS011;4900;49.306;8.500;2022-11-30T17:57:33;19.20;;;13.03;;
9722;SDS011;4900;49.306;8.500;2022-11-30T18:00:38;18.87;;;13.67;;
9722;SDS011;4900;49.306;8.500;2022-11-30T18:03:43;18.43;;;13.20;;
9722;SDS011;4900;49.306;8.500;2022-11-30T18:06:46;17.97;;;13.50;;
9722;SDS011;4900;49.306;8.500;2022-11-30T18:09:49;17.37;;;12.83;;
9722;SDS011;4900;49.306;8.500;2022-11-30T18:12:53;19.50;;;13.63;;
9722;SDS011;4900;49.306;8.500;2022-11-30T18:16:09;19.03;;;13.53;;
9722;SDS011;4900;49.306;8.500;2022-11-30T18:19:13;18.57;;;12.90;;
9722;SDS011;4900;49.306;8.500;2022-11-30T18:22:18;17.10;;;12.40;;
9722;SDS011;4900;49.306;8.500;2022-11-30T18:25:21;19.93;;;13.20;;
9722;SDS011;4900;49.306;8.500;2022-11-30T18:28:24;18.30;;;12.90;;
9722;SDS011;4900;49.306;8.500;2022-11-30T18:31:28;23.27;;;17.57;;
9722;SDS011;4900;49.306;8.500;2022-11-30T18:34:32;19.60;;;13.73;;
9722;SDS011;4900;49.306;8.500;2022-11-30T18:37:36;19.53;;;14.33;;
9722;SDS011;4900;49.306;8.500;2022-11-30T18:40:40;21.20;;;16.07;;
9722;SDS011;4900;49.306;8.500;2022-11-30T18:43:44;15.63;;;11.80;;
9722;SDS011;4900;49.306;8.500;2022-11-30T18:46:48;15.57;;;11.73;;
9722;SDS011;4900;49.306;8.500;2022-11-30T18:49:51;16.73;;;12.33;;
9722;SDS011;4900;49.306;8.500;2022-11-30T18:52:55;17.43;;;12.33;;
9722;SDS011;4900;49.306;8.500;2022-11-30T18:56:05;17.00;;;11.80;;
9722;SDS011;4900;49.306;8.500;2022-11-30T18:59:11;19.67;;;14.53;;
9722;SDS011;4900;49.306;8.500;2022-11-30T19:02:15;17.90;;;12.80;;
9722;SDS011;4900;49.306;8.500;2022-11-30T19:05:21;17.93;;;11.70;;
9722;SDS011;4900;49.306;8.500;2022-11-30T19:08:34;17.50;;;11.57;;
9722;SDS011;4900;49.306;8.500;2022-11-30T19:11:39;17.10;;;12.00;;
9722;SDS011;4900;49.306;8.500;2022-11-30T19:14:43;16.07;;;11.80;;
9722;SDS011;4900;49.306;8.500;2022-11-30T19:17:46;16.83;;;12.37;;
9722;SDS011;4900;49.306;8.500;2022-11-30T19:20:50;17.07;;;12.17;;
9722;SDS011;4900;49.306;8.500;2022-11-30T19:23:53;17.67;;;12.10;;
9722;SDS011;4900;49.306;8.500;2022-11-30T19:26:57;16.73;;;12.47;;
9722;SDS011;4900;49.306;8.500;2022-11-30T19:30:02;18.13;;;12.43;;
9722;SDS011;4900;49.306;8.500;2022-11-30T19:33:08;16.83;;;11.67;;
9722;SDS011;4900;49.306;8.500;2022-11-30T19:36:12;16.33;;;11.43;;
9722;SDS011;4900;49.306;8.500;2022-11-30T19:39:17;16.03;;;10.63;;
9722;SDS011;4900;49.306;8.500;2022-11-30T19:42:20;13.70;;;9.57;;
9722;SDS011;4900;49.306;8.500;2022-11-30T19:45:24;16.50;;;10.83;;
9722;SDS011;4900;49.306;8.500;2022-11-30T19:48:28;13.77;;;10.00;;
9722;SDS011;4900;49.306;8.500;2022-11-30T19:51:31;15.07;;;9.67;;
9722;SDS011;4900;49.306;8.500;2022-11-30T19:54:35;15.47;;;10.00;;
9722;SDS011;4900;49.306;8.500;2022-11-30T19:57:38;12.67;;;8.93;;
9722;SDS011;4900;49.306;8.500;2022-11-30T20:00:44;13.30;;;9.23;;
9722;SDS011;4900;49.306;8.500;2022-11-30T20:03:48;14.43;;;10.07;;
9722;SDS011;4900;49.306;8.500;2022-11-30T20:06:52;14.77;;;9.77;;
9722;SDS011;4900;49.306;8.500;2022-11-30T20:09:55;11.77;;;8.80;;
9722;SDS011;4900;49.306;8.500;2022-11-30T20:12:59;11.53;;;8.43;;
9722;SDS011;4900;49.306;8.500;2022-11-30T20:19:14;12.57;;;8.67;;
9722;SDS011;4900;49.306;8.500;2022-11-30T20:22:18;10.60;;;7.77;;
9722;SDS011;4900;49.306;8.500;2022-11-30T20:25:22;12.73;;;8.10;;
9722;SDS011;4900;49.306;8.500;2022-11-30T20:28:26;11.33;;;7.77;;
9722;SDS011;4900;49.306;8.500;2022-11-30T20:31:30;12.30;;;7.73;;
9722;SDS011;4900;49.306;8.500;2022-11-30T20:34:36;14.00;;;9.33;;
9722;SDS011;4900;49.306;8.500;2022-11-30T20:37:42;13.80;;;8.87;;